Terminal Aerodrome Forecast
Issued by NWS

Home | Current Version | Previous Version | Text Only | Print | Product List | Glossary On
Versions: 1 2 3 4 5 6 7 8 9 10 11 12 13 14 15
000
FTUS46 KSEW 212333
TAFBLI
TAF
KBLI 212333Z 2200/2224 01006KT P6SM VCSH SCT040 BKN070
     FM220200 03010KT P6SM -SHRA BKN040 OVC070
     FM221200 03009KT P6SM SCT040 BKN070
     FM221800 10010KT P6SM -RA BKN040 OVC070=

USA.gov is the U.S. government's official web portal to all federal, state and local government web resources and services.